createdAt,value
2022-08-01T00:01:18.313Z,5.97
2022-08-01T00:03:46.333Z,6.23
2022-08-01T00:06:14.626Z,6.00
2022-08-01T00:08:44.197Z,5.90
2022-08-01T00:11:12.280Z,5.80
2022-08-01T00:13:40.488Z,5.80
2022-08-01T00:16:08.593Z,6.17
2022-08-01T00:18:37.673Z,6.07
2022-08-01T00:21:08.365Z,5.53
2022-08-01T00:23:36.542Z,5.73
2022-08-01T00:26:05.843Z,5.97
2022-08-01T00:28:34.064Z,5.60
2022-08-01T00:31:02.401Z,5.90
2022-08-01T00:33:30.317Z,5.53
2022-08-01T00:35:58.623Z,5.40
2022-08-01T00:38:26.585Z,5.40
2022-08-01T00:40:54.744Z,4.90
2022-08-01T00:43:24.439Z,5.17
2022-08-01T00:45:52.436Z,5.17
2022-08-01T00:48:21.758Z,5.40
2022-08-01T00:50:50.228Z,4.90
2022-08-01T00:53:18.916Z,5.03
2022-08-01T00:55:47.383Z,5.07
2022-08-01T00:58:15.498Z,5.50
2022-08-01T01:00:53.271Z,5.70
2022-08-01T01:03:33.444Z,5.00
2022-08-01T01:06:23.275Z,5.07
2022-08-01T01:09:01.018Z,5.50
2022-08-01T01:11:38.408Z,5.00
2022-08-01T01:14:12.327Z,5.43
2022-08-01T01:16:44.588Z,6.20
2022-08-01T01:19:18.865Z,6.20
2022-08-01T01:22:12.188Z,5.20
2022-08-01T01:24:52.687Z,5.60
2022-08-01T01:27:31.094Z,5.53
2022-08-01T01:30:02.695Z,5.23
2022-08-01T01:32:35.531Z,5.53
2022-08-01T01:35:08.898Z,5.57
2022-08-01T01:37:40.644Z,5.93
2022-08-01T01:40:12.090Z,4.93
2022-08-01T01:42:42.160Z,5.60
2022-08-01T01:45:12.889Z,5.17
2022-08-01T01:47:42.177Z,5.60
2022-08-01T01:50:13.498Z,6.67
2022-08-01T01:52:42.885Z,6.23
2022-08-01T01:55:12.610Z,6.43
2022-08-01T01:57:42.761Z,5.97
2022-08-01T02:00:14.315Z,6.33
2022-08-01T02:02:44.418Z,6.07
2022-08-01T02:05:14.708Z,6.00
2022-08-01T02:07:44.133Z,5.63
2022-08-01T02:10:14.357Z,6.00
2022-08-01T02:12:46.623Z,5.53
2022-08-01T02:15:18.258Z,6.10
2022-08-01T02:17:49.697Z,6.23
2022-08-01T02:20:18.692Z,6.10
2022-08-01T02:22:50.850Z,5.80
2022-08-01T02:25:24.888Z,5.80
2022-08-01T02:28:01.782Z,5.73
2022-08-01T02:30:36.456Z,5.90
2022-08-01T02:33:10.171Z,5.20
2022-08-01T02:36:30.191Z,5.70
2022-08-01T02:38:37.513Z,5.87
2022-08-01T02:41:10.630Z,5.97
2022-08-01T02:43:41.221Z,6.47
2022-08-01T02:46:18.360Z,6.47
2022-08-01T02:48:48.226Z,6.53
2022-08-01T02:51:18.133Z,6.13
2022-08-01T02:53:48.384Z,5.70
2022-08-01T02:56:19.611Z,5.77
2022-08-01T02:58:49.242Z,6.17
2022-08-01T03:01:21.596Z,6.03
2022-08-01T03:03:50.382Z,5.63
2022-08-01T03:06:20.013Z,6.40
2022-08-01T03:08:52.872Z,5.67
2022-08-01T03:11:22.942Z,5.90
2022-08-01T03:13:52.669Z,5.83
2022-08-01T03:16:24.466Z,6.07
2022-08-01T03:18:55.339Z,5.70
2022-08-01T03:21:25.468Z,6.27
2022-08-01T03:23:58.169Z,5.87
2022-08-01T03:26:29.830Z,6.47
2022-08-01T03:28:59.447Z,6.37
2022-08-01T03:31:30.010Z,6.13
2022-08-01T03:34:01.713Z,6.30
2022-08-01T03:36:35.857Z,6.50
2022-08-01T03:39:09.243Z,5.93
2022-08-01T03:41:42.912Z,6.57
2022-08-01T03:44:16.597Z,6.43
2022-08-01T03:46:49.504Z,7.50
2022-08-01T03:49:22.521Z,6.93
2022-08-01T03:51:52.964Z,6.60
2022-08-01T03:54:25.986Z,6.93
2022-08-01T03:56:54.921Z,6.13
2022-08-01T03:59:23.469Z,6.00
2022-08-01T04:01:53.262Z,6.50
2022-08-01T04:04:21.812Z,6.90
2022-08-01T04:06:52.179Z,6.17
2022-08-01T04:09:20.407Z,5.80
2022-08-01T04:11:48.710Z,5.00
2022-08-01T04:14:16.961Z,5.17
2022-08-01T04:16:45.449Z,4.63
2022-08-01T04:19:15.903Z,4.47
2022-08-01T04:21:44.166Z,4.60
2022-08-01T04:24:17.630Z,4.47
2022-08-01T04:26:48.671Z,4.27
2022-08-01T04:29:20.232Z,4.70
2022-08-01T04:31:51.224Z,3.97
2022-08-01T04:34:25.660Z,4.10
2022-08-01T04:36:56.664Z,4.13
2022-08-01T04:39:28.835Z,3.97
2022-08-01T04:41:58.599Z,3.70
2022-08-01T04:44:32.474Z,3.77
2022-08-01T04:47:02.210Z,3.80
2022-08-01T04:49:33.177Z,3.80
2022-08-01T04:52:24.474Z,3.50
2022-08-01T04:54:52.987Z,2.83
2022-08-01T04:57:21.755Z,2.40
2022-08-01T04:59:50.629Z,2.30
2022-08-01T05:02:20.259Z,1.63
2022-08-01T05:04:49.812Z,1.67
2022-08-01T05:07:18.145Z,1.63
2022-08-01T05:09:47.307Z,1.60
2022-08-01T05:12:16.973Z,1.90
2022-08-01T05:14:45.002Z,1.80
2022-08-01T05:17:13.277Z,1.90
2022-08-01T05:19:44.066Z,2.00
2022-08-01T05:22:13.493Z,2.07
2022-08-01T05:24:43.543Z,2.13
2022-08-01T05:27:13.658Z,2.73
2022-08-01T05:29:45.011Z,2.70
2022-08-01T05:32:13.189Z,2.83
2022-08-01T05:34:41.460Z,2.70
2022-08-01T05:37:09.774Z,2.10
2022-08-01T05:39:39.149Z,2.30
2022-08-01T05:42:07.646Z,1.70
2022-08-01T05:44:36.475Z,1.70
2022-08-01T05:47:04.900Z,1.80
2022-08-01T05:49:33.087Z,1.60
2022-08-01T05:52:03.057Z,1.80
2022-08-01T05:54:31.632Z,1.60
2022-08-01T05:57:03.073Z,1.70
2022-08-01T05:59:31.754Z,1.70
2022-08-01T06:01:59.781Z,1.60
2022-08-01T06:04:28.030Z,1.57
2022-08-01T06:06:56.127Z,1.70
2022-08-01T06:09:24.087Z,1.40
2022-08-01T06:11:52.200Z,1.63
2022-08-01T06:14:21.743Z,1.77
2022-08-01T06:16:49.917Z,1.80
2022-08-01T06:19:18.076Z,1.83
2022-08-01T06:21:46.664Z,2.07
2022-08-01T06:24:14.785Z,2.33
2022-08-01T06:26:43.552Z,2.27
2022-08-01T06:29:11.661Z,2.03
2022-08-01T06:31:41.836Z,1.60
2022-08-01T06:34:09.969Z,2.13
2022-08-01T06:36:38.305Z,1.73
2022-08-01T06:39:06.703Z,1.90
2022-08-01T06:41:35.693Z,2.40
2022-08-01T06:44:05.607Z,1.93
2022-08-01T06:46:35.029Z,2.30
2022-08-01T06:49:04.912Z,2.13
2022-08-01T06:51:33.138Z,2.70
2022-08-01T06:54:01.065Z,2.03
2022-08-01T06:56:29.631Z,2.00
2022-08-01T06:59:01.906Z,2.10
2022-08-01T07:01:30.137Z,2.00
2022-08-01T07:04:02.497Z,2.63
2022-08-01T07:06:32.054Z,1.80
2022-08-01T07:09:08.242Z,2.37
2022-08-01T07:11:39.283Z,2.40
2022-08-01T07:14:07.526Z,2.10
2022-08-01T07:16:35.608Z,2.07
2022-08-01T07:19:03.940Z,1.90
2022-08-01T07:21:39.966Z,2.20
2022-08-01T07:24:13.032Z,1.97
2022-08-01T07:26:52.164Z,2.10
2022-08-01T07:29:21.394Z,2.53
2022-08-01T07:31:49.370Z,2.30
2022-08-01T07:34:17.330Z,2.00
2022-08-01T07:36:47.060Z,2.00
2022-08-01T07:39:15.069Z,1.93
2022-08-01T07:41:45.533Z,1.80
2022-08-01T07:44:31.363Z,1.87
2022-08-01T07:46:59.814Z,1.83
2022-08-01T07:49:27.832Z,1.73
2022-08-01T07:52:13.617Z,1.90
2022-08-01T07:54:41.875Z,2.00
2022-08-01T07:57:10.682Z,2.00
2022-08-01T07:59:38.634Z,1.97
2022-08-01T08:02:07.071Z,1.80
2022-08-01T08:04:35.811Z,1.80
2022-08-01T08:07:05.903Z,1.70
2022-08-01T08:09:37.121Z,1.87
2022-08-01T08:12:08.871Z,1.77
2022-08-01T08:14:37.287Z,2.10
2022-08-01T08:17:05.604Z,1.90
2022-08-01T08:19:37.729Z,2.00
2022-08-01T08:22:11.074Z,1.70
2022-08-01T08:24:46.683Z,2.07
2022-08-01T08:27:15.251Z,2.30
2022-08-01T08:29:43.869Z,2.13
2022-08-01T08:32:13.013Z,2.00
2022-08-01T08:34:41.241Z,1.80
2022-08-01T08:37:11.255Z,1.60
2022-08-01T08:39:41.995Z,2.00
2022-08-01T08:42:11.287Z,2.17
2022-08-01T08:44:43.347Z,1.77
2022-08-01T08:47:18.987Z,1.87
2022-08-01T08:49:49.562Z,2.07
2022-08-01T08:52:21.033Z,2.00
2022-08-01T08:54:50.517Z,2.40
2022-08-01T08:57:21.018Z,2.30
2022-08-01T08:59:49.936Z,2.17
2022-08-01T09:02:18.130Z,2.77
2022-08-01T09:04:46.455Z,2.03
2022-08-01T09:07:15.348Z,2.23
2022-08-01T09:09:44.838Z,2.23
2022-08-01T09:12:13.229Z,2.37
2022-08-01T09:14:47.666Z,2.37
2022-08-01T09:17:15.751Z,2.30
2022-08-01T09:19:45.687Z,2.80
2022-08-01T09:22:19.304Z,2.00
2022-08-01T09:25:01.876Z,2.10
2022-08-01T09:27:31.376Z,2.80
2022-08-01T09:30:11.206Z,2.20
2022-08-01T09:32:46.164Z,2.17
2022-08-01T09:35:29.808Z,2.40
2022-08-01T09:38:15.761Z,2.07
2022-08-01T09:40:50.799Z,1.93
2022-08-01T09:43:19.794Z,1.80
2022-08-01T09:45:50.626Z,1.77
2022-08-01T09:48:19.283Z,2.00
2022-08-01T09:50:49.201Z,2.13
2022-08-01T09:53:30.459Z,1.93
2022-08-01T09:56:12.588Z,1.90
2022-08-01T09:58:59.994Z,2.00
2022-08-01T10:01:37.045Z,2.03
2022-08-01T10:04:12.001Z,2.17
2022-08-01T10:06:41.940Z,1.83
2022-08-01T10:09:12.446Z,2.33
2022-08-01T10:11:45.345Z,2.30
2022-08-01T10:14:18.373Z,2.20
2022-08-01T10:16:53.621Z,2.10
2022-08-01T10:19:25.514Z,2.37
2022-08-01T10:22:00.045Z,2.00
2022-08-01T10:24:30.771Z,1.63
2022-08-01T10:27:08.333Z,1.83
2022-08-01T10:29:59.765Z,2.07
2022-08-01T10:32:32.888Z,1.87
2022-08-01T10:35:06.277Z,2.43
2022-08-01T10:37:35.747Z,1.73
2022-08-01T10:40:30.453Z,1.70
2022-08-01T10:43:01.126Z,1.60
2022-08-01T10:45:30.507Z,1.50
2022-08-01T10:48:05.160Z,1.33
2022-08-01T10:50:37.036Z,1.67
2022-08-01T10:53:24.456Z,1.90
2022-08-01T10:56:03.229Z,1.30
2022-08-01T10:58:42.811Z,1.50
2022-08-01T11:01:25.836Z,1.37
2022-08-01T11:04:16.649Z,1.40
2022-08-01T11:06:56.887Z,1.53
2022-08-01T11:09:37.051Z,1.27
2022-08-01T11:12:13.265Z,1.40
2022-08-01T11:15:29.978Z,1.17
2022-08-01T11:18:01.600Z,1.70
2022-08-01T11:20:32.720Z,1.53
2022-08-01T11:23:36.290Z,1.50
2022-08-01T11:26:29.144Z,1.30
2022-08-01T11:29:21.547Z,1.40
2022-08-01T11:31:53.653Z,1.60
2022-08-01T11:34:21.978Z,1.30
2022-08-01T11:36:59.518Z,1.60
2022-08-01T11:39:29.508Z,1.17
2022-08-01T11:42:18.033Z,1.60
2022-08-01T11:44:56.603Z,1.70
2022-08-01T11:47:49.967Z,1.40
2022-08-01T11:50:34.947Z,1.50
2022-08-01T11:53:05.292Z,1.80
2022-08-01T11:55:36.035Z,1.60
2022-08-01T11:58:06.523Z,1.73
2022-08-01T12:00:35.702Z,1.47
2022-08-01T12:03:07.747Z,1.70
2022-08-01T12:05:43.222Z,1.60
2022-08-01T12:08:11.814Z,1.70
2022-08-01T12:10:47.015Z,1.97
2022-08-01T12:13:19.144Z,2.20
2022-08-01T12:15:47.611Z,1.50
2022-08-01T12:18:17.010Z,1.50
2022-08-01T12:20:56.542Z,1.70
2022-08-01T12:23:25.502Z,1.53
2022-08-01T12:25:54.669Z,1.30
2022-08-01T12:28:23.890Z,1.40
2022-08-01T12:30:52.897Z,1.77
2022-08-01T12:33:23.253Z,1.40
2022-08-01T12:35:51.488Z,1.70
2022-08-01T12:38:26.119Z,1.60
2022-08-01T12:40:54.965Z,1.40
2022-08-01T12:43:28.741Z,1.30
2022-08-01T12:46:00.790Z,1.30
2022-08-01T12:48:33.308Z,1.40
2022-08-01T12:51:03.395Z,1.40
2022-08-01T12:53:40.358Z,1.30
2022-08-01T12:56:10.778Z,1.50
2022-08-01T12:58:38.989Z,1.60
2022-08-01T13:01:08.407Z,1.77
2022-08-01T13:03:38.582Z,2.10
2022-08-01T13:06:13.592Z,1.33
2022-08-01T13:08:41.983Z,1.63
2022-08-01T13:11:15.425Z,1.50
2022-08-01T13:13:45.194Z,1.37
2022-08-01T13:16:15.590Z,1.93
2022-08-01T13:18:52.495Z,1.60
2022-08-01T13:21:21.790Z,1.67
2022-08-01T13:24:04.997Z,1.47
2022-08-01T13:26:43.633Z,1.33
2022-08-01T13:29:13.481Z,1.50
2022-08-01T13:31:42.593Z,1.30
2022-08-01T13:34:12.777Z,1.60
2022-08-01T13:36:48.413Z,1.40
2022-08-01T13:39:35.454Z,1.53
2022-08-01T13:42:03.977Z,1.30
2022-08-01T13:44:32.395Z,1.30
2022-08-01T13:47:00.415Z,1.47
2022-08-01T13:49:36.396Z,1.70
2022-08-01T13:52:07.668Z,1.50
2022-08-01T13:54:39.146Z,1.63
2022-08-01T13:57:07.603Z,1.83
2022-08-01T13:59:35.640Z,1.67
2022-08-01T14:02:04.249Z,1.80
2022-08-01T14:04:34.193Z,1.57
2022-08-01T14:07:09.542Z,1.73
2022-08-01T14:09:45.003Z,1.47
2022-08-01T14:12:28.311Z,1.10
2022-08-01T14:14:57.519Z,1.60
2022-08-01T14:17:25.575Z,1.07
2022-08-01T14:20:00.563Z,1.40
2022-08-01T14:22:28.653Z,1.00
2022-08-01T14:25:00.976Z,1.63
2022-08-01T14:27:32.206Z,1.40
2022-08-01T14:30:03.782Z,1.37
2022-08-01T14:32:34.465Z,1.40
2022-08-01T14:35:05.009Z,1.70
2022-08-01T14:37:37.887Z,1.00
2022-08-01T14:40:10.287Z,1.47
2022-08-01T14:42:39.341Z,1.13
2022-08-01T14:45:10.981Z,1.70
2022-08-01T14:47:39.486Z,1.40
2022-08-01T14:50:11.532Z,1.13
2022-08-01T14:52:41.020Z,1.20
2022-08-01T14:55:11.021Z,1.40
2022-08-01T14:57:40.213Z,1.43
2022-08-01T15:00:11.636Z,1.20
2022-08-01T15:02:39.707Z,1.20
2022-08-01T15:05:09.873Z,1.67
2022-08-01T15:07:45.414Z,1.20
2022-08-01T15:10:20.884Z,1.63
2022-08-01T15:12:50.663Z,1.30
2022-08-01T15:15:18.916Z,1.60
2022-08-01T15:17:47.175Z,1.40
2022-08-01T15:20:16.662Z,1.40
2022-08-01T15:22:45.011Z,1.37
2022-08-01T15:25:13.259Z,1.10
2022-08-01T15:27:41.375Z,1.40
2022-08-01T15:30:10.177Z,1.60
2022-08-01T15:32:39.334Z,1.60
2022-08-01T15:35:12.403Z,1.50
2022-08-01T15:37:43.407Z,1.20
2022-08-01T15:40:12.479Z,1.23
2022-08-01T15:42:40.766Z,1.13
2022-08-01T15:45:20.752Z,1.13
2022-08-01T15:47:58.329Z,1.43
2022-08-01T15:50:26.553Z,1.70
2022-08-01T15:52:56.042Z,1.30
2022-08-01T15:55:24.123Z,1.23
2022-08-01T15:57:52.772Z,1.40
2022-08-01T16:00:20.719Z,1.20
2022-08-01T16:02:49.059Z,1.33
2022-08-01T16:05:20.273Z,1.40
2022-08-01T16:07:58.038Z,1.50
2022-08-01T16:10:30.956Z,1.40
2022-08-01T16:12:58.973Z,1.40
2022-08-01T16:15:37.051Z,1.20
2022-08-01T16:18:05.942Z,1.20
2022-08-01T16:20:34.106Z,1.07
2022-08-01T16:23:03.287Z,1.40
2022-08-01T16:25:32.878Z,1.07
2022-08-01T16:28:00.845Z,1.40
2022-08-01T16:30:29.606Z,1.60
2022-08-01T16:33:00.305Z,1.30
2022-08-01T16:35:36.112Z,1.27
2022-08-01T16:38:05.534Z,1.30
2022-08-01T16:40:47.264Z,1.97
2022-08-01T16:43:16.620Z,1.60
2022-08-01T16:45:45.606Z,1.50
2022-08-01T16:48:15.964Z,1.47
2022-08-01T16:50:44.326Z,1.00
2022-08-01T16:53:13.185Z,1.50
2022-08-01T16:55:50.296Z,1.37
2022-08-01T16:58:27.768Z,1.63
2022-08-01T17:00:57.753Z,1.50
2022-08-01T17:03:46.758Z,1.40
2022-08-01T17:06:17.620Z,1.40
2022-08-01T17:08:47.250Z,1.80
2022-08-01T17:11:16.695Z,1.60
2022-08-01T17:13:45.479Z,1.60
2022-08-01T17:16:13.914Z,1.50
2022-08-01T17:18:42.304Z,1.73
2022-08-01T17:21:10.339Z,1.40
2022-08-01T17:23:39.729Z,1.37
2022-08-01T17:26:10.601Z,1.47
2022-08-01T17:28:40.280Z,1.63
2022-08-01T17:31:10.652Z,1.60
2022-08-01T17:33:45.885Z,1.17
2022-08-01T17:36:14.408Z,1.67
2022-08-01T17:38:42.730Z,2.07
2022-08-01T17:41:10.791Z,1.70
2022-08-01T17:43:40.428Z,1.77
2022-08-01T17:46:08.690Z,1.83
2022-08-01T17:48:36.824Z,1.77
2022-08-01T17:51:06.721Z,1.60
2022-08-01T17:53:37.590Z,2.30
2022-08-01T17:56:24.727Z,1.73
2022-08-01T17:58:54.306Z,1.83
2022-08-01T18:01:26.546Z,1.80
2022-08-01T18:03:55.069Z,1.43
2022-08-01T18:06:23.803Z,2.00
2022-08-01T18:08:55.361Z,2.70
2022-08-01T18:11:24.648Z,2.13
2022-08-01T18:13:57.043Z,1.97
2022-08-01T18:16:27.987Z,2.27
2022-08-01T18:18:56.411Z,2.60
2022-08-01T18:21:24.477Z,2.90
2022-08-01T18:23:53.238Z,2.70
2022-08-01T18:26:21.843Z,3.07
2022-08-01T18:28:50.274Z,3.33
2022-08-01T18:31:20.881Z,2.80
2022-08-01T18:33:49.233Z,2.30
2022-08-01T18:36:33.070Z,2.20
2022-08-01T18:39:04.569Z,3.13
2022-08-01T18:41:33.975Z,2.07
2022-08-01T18:44:05.733Z,2.20
2022-08-01T18:46:38.641Z,3.27
2022-08-01T18:49:08.735Z,2.40
2022-08-01T18:51:43.416Z,2.27
2022-08-01T18:54:13.422Z,2.50
2022-08-01T18:56:42.293Z,2.67
2022-08-01T18:59:10.759Z,2.20
2022-08-01T19:01:40.824Z,2.40
2022-08-01T19:04:10.194Z,1.93
2022-08-01T19:06:41.692Z,3.13
2022-08-01T19:09:10.192Z,2.33
2022-08-01T19:11:38.986Z,2.40
2022-08-01T19:14:07.289Z,2.70
2022-08-01T19:16:37.564Z,2.07
2022-08-01T19:19:10.658Z,2.70
2022-08-01T19:21:44.590Z,2.40
2022-08-01T19:24:23.622Z,2.27
2022-08-01T19:26:53.675Z,2.60
2022-08-01T19:29:35.378Z,1.83
2022-08-01T19:32:05.683Z,2.23
2022-08-01T19:34:37.263Z,2.30
2022-08-01T19:37:06.072Z,2.83
2022-08-01T19:39:34.395Z,1.80
2022-08-01T19:42:04.318Z,2.00
2022-08-01T19:44:33.050Z,2.33
2022-08-01T19:47:02.975Z,2.40
2022-08-01T19:49:31.277Z,2.50
2022-08-01T19:52:02.551Z,2.13
2022-08-01T19:54:35.995Z,2.37
2022-08-01T19:57:08.488Z,2.80
2022-08-01T19:59:38.039Z,2.00
2022-08-01T20:02:07.200Z,1.70
2022-08-01T20:04:36.390Z,2.43
2022-08-01T20:07:07.014Z,1.97
2022-08-01T20:09:35.990Z,1.77
2022-08-01T20:12:04.897Z,1.83
2022-08-01T20:14:33.269Z,2.57
2022-08-01T20:17:01.622Z,1.80
2022-08-01T20:19:30.588Z,2.00
2022-08-01T20:22:02.582Z,1.73
2022-08-01T20:24:38.114Z,1.80
2022-08-01T20:27:11.464Z,2.13
2022-08-01T20:29:40.848Z,1.50
2022-08-01T20:32:09.636Z,1.90
2022-08-01T20:34:40.389Z,2.03
2022-08-01T20:37:13.185Z,2.03
2022-08-01T20:39:45.293Z,2.03
2022-08-01T20:42:14.210Z,2.17
2022-08-01T20:44:45.554Z,2.00
2022-08-01T20:47:15.470Z,1.87
2022-08-01T20:49:45.787Z,2.00
2022-08-01T20:52:15.771Z,2.27
2022-08-01T20:54:45.480Z,2.47
2022-08-01T20:57:20.604Z,2.00
2022-08-01T20:59:56.925Z,1.73
2022-08-01T21:02:41.760Z,1.97
2022-08-01T21:05:11.765Z,2.53
2022-08-01T21:07:44.439Z,2.33
2022-08-01T21:10:16.446Z,2.60
2022-08-01T21:12:48.612Z,1.90
2022-08-01T21:15:25.354Z,2.87
2022-08-01T21:17:59.418Z,2.03
2022-08-01T21:20:30.110Z,2.50
2022-08-01T21:23:09.821Z,2.27
2022-08-01T21:25:39.479Z,2.00
2022-08-01T21:28:07.628Z,2.43
2022-08-01T21:30:40.358Z,2.20
2022-08-01T21:33:12.593Z,2.57
2022-08-01T21:35:41.701Z,2.83
2022-08-01T21:38:10.653Z,2.73
2022-08-01T21:40:40.446Z,2.33
2022-08-01T21:43:09.997Z,2.67
2022-08-01T21:45:40.036Z,2.50
2022-08-01T21:48:30.209Z,2.30
2022-08-01T21:51:03.988Z,3.43
2022-08-01T21:53:43.489Z,2.33
2022-08-01T21:56:27.205Z,2.27
2022-08-01T21:59:06.930Z,2.90
2022-08-01T22:01:52.238Z,2.60
2022-08-01T22:04:27.334Z,2.50
2022-08-01T22:06:56.818Z,2.57
2022-08-01T22:09:25.140Z,3.23
2022-08-01T22:12:09.727Z,2.50
2022-08-01T22:14:43.139Z,2.53
2022-08-01T22:17:15.018Z,2.53
2022-08-01T22:19:46.388Z,3.57
2022-08-01T22:22:44.639Z,3.63
2022-08-01T22:25:06.912Z,2.80
2022-08-01T22:28:06.398Z,2.63
2022-08-01T22:30:30.164Z,2.50
2022-08-01T22:33:15.123Z,3.23
2022-08-01T22:35:45.751Z,2.77
2022-08-01T22:38:14.588Z,2.57
2022-08-01T22:40:49.155Z,2.83
2022-08-01T22:43:26.563Z,2.47
2022-08-01T22:46:08.535Z,2.70
2022-08-01T22:48:42.798Z,2.80
2022-08-01T22:51:21.682Z,2.43
2022-08-01T22:54:09.977Z,3.07
2022-08-01T22:56:43.314Z,2.40
2022-08-01T22:59:17.113Z,2.60
2022-08-01T23:01:50.572Z,2.43
2022-08-01T23:04:33.085Z,2.70
2022-08-01T23:07:06.042Z,3.53
2022-08-01T23:09:53.122Z,2.70
2022-08-01T23:12:24.825Z,2.40
2022-08-01T23:14:55.871Z,3.83
2022-08-01T23:17:26.555Z,2.90
2022-08-01T23:19:58.640Z,3.10
2022-08-01T23:22:30.280Z,3.30
2022-08-01T23:25:05.187Z,3.90
2022-08-01T23:28:04.251Z,3.70
2022-08-01T23:30:28.781Z,3.60
2022-08-01T23:32:57.484Z,3.20
2022-08-01T23:35:26.290Z,3.60
2022-08-01T23:38:02.468Z,3.20
2022-08-01T23:40:33.082Z,3.33
2022-08-01T23:43:02.415Z,2.90
2022-08-01T23:46:02.542Z,2.70
2022-08-01T23:48:21.338Z,2.87
2022-08-01T23:50:49.562Z,2.60
2022-08-01T23:53:17.696Z,3.00
2022-08-01T23:55:48.230Z,3.10
2022-08-01T23:58:16.668Z,3.40
